sensor_id;sensor_type;location;lat;lon;timestamp;P1;durP1;ratioP1;P2;durP2;ratioP2
22435;SDS011;11385;50.822;4.324;2023-08-21T00:00:42;6.33;;;1.90;;
22435;SDS011;11385;50.822;4.324;2023-08-21T00:03:09;7.95;;;2.00;;
22435;SDS011;11385;50.822;4.324;2023-08-21T00:05:36;6.95;;;1.80;;
22435;SDS011;11385;50.822;4.324;2023-08-21T00:08:03;7.87;;;1.95;;
22435;SDS011;11385;50.822;4.324;2023-08-21T00:10:30;9.30;;;2.00;;
22435;SDS011;11385;50.822;4.324;2023-08-21T00:12:58;8.08;;;1.60;;
22435;SDS011;11385;50.822;4.324;2023-08-21T00:15:25;9.95;;;2.05;;
22435;SDS011;11385;50.822;4.324;2023-08-21T00:17:51;11.10;;;1.90;;
22435;SDS011;11385;50.822;4.324;2023-08-21T00:20:19;8.85;;;2.15;;
22435;SDS011;11385;50.822;4.324;2023-08-21T00:22:46;5.40;;;1.60;;
22435;SDS011;11385;50.822;4.324;2023-08-21T00:25:13;7.15;;;1.50;;
22435;SDS011;11385;50.822;4.324;2023-08-21T00:27:39;8.93;;;2.00;;
22435;SDS011;11385;50.822;4.324;2023-08-21T00:30:07;11.75;;;1.90;;
22435;SDS011;11385;50.822;4.324;2023-08-21T00:32:34;9.48;;;1.85;;
22435;SDS011;11385;50.822;4.324;2023-08-21T00:35:02;9.23;;;1.80;;
22435;SDS011;11385;50.822;4.324;2023-08-21T00:37:30;6.83;;;2.10;;
22435;SDS011;11385;50.822;4.324;2023-08-21T00:39:57;6.03;;;1.70;;
22435;SDS011;11385;50.822;4.324;2023-08-21T00:42:24;5.10;;;1.85;;
22435;SDS011;11385;50.822;4.324;2023-08-21T00:44:50;8.35;;;1.72;;
22435;SDS011;11385;50.822;4.324;2023-08-21T00:47:17;8.68;;;2.12;;
22435;SDS011;11385;50.822;4.324;2023-08-21T00:49:45;9.90;;;2.20;;
22435;SDS011;11385;50.822;4.324;2023-08-21T00:52:12;9.35;;;2.12;;
22435;SDS011;11385;50.822;4.324;2023-08-21T00:54:40;7.22;;;1.90;;
22435;SDS011;11385;50.822;4.324;2023-08-21T00:57:07;7.10;;;2.20;;
22435;SDS011;11385;50.822;4.324;2023-08-21T00:59:35;7.35;;;1.85;;
22435;SDS011;11385;50.822;4.324;2023-08-21T01:02:03;8.68;;;1.77;;
22435;SDS011;11385;50.822;4.324;2023-08-21T01:04:30;6.97;;;1.80;;
22435;SDS011;11385;50.822;4.324;2023-08-21T01:06:57;8.98;;;1.90;;
22435;SDS011;11385;50.822;4.324;2023-08-21T01:09:25;8.40;;;2.40;;
22435;SDS011;11385;50.822;4.324;2023-08-21T01:12:10;11.12;;;2.22;;
22435;SDS011;11385;50.822;4.324;2023-08-21T01:14:48;9.60;;;2.05;;
22435;SDS011;11385;50.822;4.324;2023-08-21T01:17:19;9.13;;;2.05;;
22435;SDS011;11385;50.822;4.324;2023-08-21T01:19:48;9.70;;;2.10;;
22435;SDS011;11385;50.822;4.324;2023-08-21T01:22:16;10.63;;;2.00;;
22435;SDS011;11385;50.822;4.324;2023-08-21T01:24:43;8.38;;;2.00;;
22435;SDS011;11385;50.822;4.324;2023-08-21T01:27:10;9.25;;;1.95;;
22435;SDS011;11385;50.822;4.324;2023-08-21T01:32:14;9.48;;;2.42;;
22435;SDS011;11385;50.822;4.324;2023-08-21T01:34:43;9.63;;;1.92;;
22435;SDS011;11385;50.822;4.324;2023-08-21T01:37:11;7.83;;;1.85;;
22435;SDS011;11385;50.822;4.324;2023-08-21T01:39:39;9.40;;;2.05;;
22435;SDS011;11385;50.822;4.324;2023-08-21T01:42:06;8.63;;;2.25;;
22435;SDS011;11385;50.822;4.324;2023-08-21T01:44:34;7.90;;;2.17;;
22435;SDS011;11385;50.822;4.324;2023-08-21T01:47:00;10.03;;;2.00;;
22435;SDS011;11385;50.822;4.324;2023-08-21T01:49:27;4.60;;;1.50;;
22435;SDS011;11385;50.822;4.324;2023-08-21T01:51:53;8.58;;;2.10;;
22435;SDS011;11385;50.822;4.324;2023-08-21T01:54:20;8.85;;;2.22;;
22435;SDS011;11385;50.822;4.324;2023-08-21T01:56:48;8.00;;;2.10;;
22435;SDS011;11385;50.822;4.324;2023-08-21T01:59:15;7.20;;;1.72;;
22435;SDS011;11385;50.822;4.324;2023-08-21T02:01:43;6.80;;;2.02;;
22435;SDS011;11385;50.822;4.324;2023-08-21T02:04:09;8.63;;;2.10;;
22435;SDS011;11385;50.822;4.324;2023-08-21T02:06:36;7.10;;;1.85;;
22435;SDS011;11385;50.822;4.324;2023-08-21T02:09:02;9.25;;;1.98;;
22435;SDS011;11385;50.822;4.324;2023-08-21T02:11:29;10.30;;;2.10;;
22435;SDS011;11385;50.822;4.324;2023-08-21T02:13:56;6.97;;;1.98;;
22435;SDS011;11385;50.822;4.324;2023-08-21T02:16:22;9.20;;;2.42;;
22435;SDS011;11385;50.822;4.324;2023-08-21T02:18:49;10.95;;;2.08;;
22435;SDS011;11385;50.822;4.324;2023-08-21T02:21:16;8.98;;;2.27;;
22435;SDS011;11385;50.822;4.324;2023-08-21T02:23:42;9.60;;;2.00;;
22435;SDS011;11385;50.822;4.324;2023-08-21T02:26:09;7.62;;;1.98;;
22435;SDS011;11385;50.822;4.324;2023-08-21T02:28:36;8.88;;;2.02;;
22435;SDS011;11385;50.822;4.324;2023-08-21T02:31:03;9.10;;;2.10;;
22435;SDS011;11385;50.822;4.324;2023-08-21T02:33:30;7.17;;;2.55;;
22435;SDS011;11385;50.822;4.324;2023-08-21T02:35:57;10.28;;;2.58;;
22435;SDS011;11385;50.822;4.324;2023-08-21T02:38:24;11.03;;;2.33;;
22435;SDS011;11385;50.822;4.324;2023-08-21T02:40:50;10.35;;;2.45;;
22435;SDS011;11385;50.822;4.324;2023-08-21T02:43:17;12.33;;;5.22;;
22435;SDS011;11385;50.822;4.324;2023-08-21T02:45:44;12.30;;;2.55;;
22435;SDS011;11385;50.822;4.324;2023-08-21T02:48:10;12.47;;;2.50;;
22435;SDS011;11385;50.822;4.324;2023-08-21T02:50:37;9.93;;;2.85;;
22435;SDS011;11385;50.822;4.324;2023-08-21T02:53:04;10.30;;;2.50;;
22435;SDS011;11385;50.822;4.324;2023-08-21T02:55:31;7.65;;;2.10;;
22435;SDS011;11385;50.822;4.324;2023-08-21T02:57:57;7.10;;;1.87;;
22435;SDS011;11385;50.822;4.324;2023-08-21T03:00:24;9.38;;;2.52;;
22435;SDS011;11385;50.822;4.324;2023-08-21T03:02:50;8.33;;;2.35;;
22435;SDS011;11385;50.822;4.324;2023-08-21T03:05:17;10.58;;;2.45;;
22435;SDS011;11385;50.822;4.324;2023-08-21T03:07:44;9.28;;;2.12;;
22435;SDS011;11385;50.822;4.324;2023-08-21T03:10:10;8.58;;;2.30;;
22435;SDS011;11385;50.822;4.324;2023-08-21T03:12:37;7.45;;;2.30;;
22435;SDS011;11385;50.822;4.324;2023-08-21T03:15:04;9.70;;;2.37;;
22435;SDS011;11385;50.822;4.324;2023-08-21T03:17:31;12.10;;;2.45;;
22435;SDS011;11385;50.822;4.324;2023-08-21T03:19:58;12.15;;;2.65;;
22435;SDS011;11385;50.822;4.324;2023-08-21T03:22:25;9.05;;;2.17;;
22435;SDS011;11385;50.822;4.324;2023-08-21T03:24:51;9.85;;;2.00;;
22435;SDS011;11385;50.822;4.324;2023-08-21T03:27:18;10.65;;;2.20;;
22435;SDS011;11385;50.822;4.324;2023-08-21T03:29:45;8.53;;;1.95;;
22435;SDS011;11385;50.822;4.324;2023-08-21T03:32:14;7.37;;;2.45;;
22435;SDS011;11385;50.822;4.324;2023-08-21T03:34:43;9.48;;;2.35;;
22435;SDS011;11385;50.822;4.324;2023-08-21T03:37:10;8.28;;;1.85;;
22435;SDS011;11385;50.822;4.324;2023-08-21T03:39:36;11.15;;;2.25;;
22435;SDS011;11385;50.822;4.324;2023-08-21T03:42:04;10.03;;;1.82;;
22435;SDS011;11385;50.822;4.324;2023-08-21T03:44:31;6.97;;;2.00;;
22435;SDS011;11385;50.822;4.324;2023-08-21T03:46:57;8.45;;;2.00;;
22435;SDS011;11385;50.822;4.324;2023-08-21T03:49:24;8.78;;;2.10;;
22435;SDS011;11385;50.822;4.324;2023-08-21T03:51:51;8.13;;;2.15;;
22435;SDS011;11385;50.822;4.324;2023-08-21T03:54:18;8.88;;;1.98;;
22435;SDS011;11385;50.822;4.324;2023-08-21T03:56:45;10.45;;;2.33;;
22435;SDS011;11385;50.822;4.324;2023-08-21T03:59:11;7.78;;;2.15;;
22435;SDS011;11385;50.822;4.324;2023-08-21T04:01:38;10.80;;;2.10;;
22435;SDS011;11385;50.822;4.324;2023-08-21T04:04:04;6.50;;;2.02;;
22435;SDS011;11385;50.822;4.324;2023-08-21T04:06:31;9.70;;;2.25;;
22435;SDS011;11385;50.822;4.324;2023-08-21T04:08:58;11.48;;;2.55;;
22435;SDS011;11385;50.822;4.324;2023-08-21T04:11:24;9.65;;;2.15;;
22435;SDS011;11385;50.822;4.324;2023-08-21T04:13:51;11.97;;;2.20;;
22435;SDS011;11385;50.822;4.324;2023-08-21T04:16:18;10.75;;;2.10;;
22435;SDS011;11385;50.822;4.324;2023-08-21T04:18:47;12.10;;;2.72;;
22435;SDS011;11385;50.822;4.324;2023-08-21T04:21:13;10.63;;;2.22;;
22435;SDS011;11385;50.822;4.324;2023-08-21T04:23:40;9.85;;;2.45;;
22435;SDS011;11385;50.822;4.324;2023-08-21T04:26:07;9.15;;;2.25;;
22435;SDS011;11385;50.822;4.324;2023-08-21T04:28:33;8.90;;;2.35;;
22435;SDS011;11385;50.822;4.324;2023-08-21T04:31:00;7.75;;;2.42;;
22435;SDS011;11385;50.822;4.324;2023-08-21T04:33:29;9.95;;;2.85;;
22435;SDS011;11385;50.822;4.324;2023-08-21T04:35:55;10.05;;;2.05;;
22435;SDS011;11385;50.822;4.324;2023-08-21T04:38:22;9.30;;;2.72;;
22435;SDS011;11385;50.822;4.324;2023-08-21T04:40:49;10.03;;;2.20;;
22435;SDS011;11385;50.822;4.324;2023-08-21T04:43:16;9.13;;;2.10;;
22435;SDS011;11385;50.822;4.324;2023-08-21T04:45:49;9.85;;;2.25;;
22435;SDS011;11385;50.822;4.324;2023-08-21T04:48:18;10.85;;;2.22;;
22435;SDS011;11385;50.822;4.324;2023-08-21T04:50:46;11.55;;;2.67;;
22435;SDS011;11385;50.822;4.324;2023-08-21T04:53:12;11.57;;;2.40;;
22435;SDS011;11385;50.822;4.324;2023-08-21T04:55:39;10.85;;;2.30;;
22435;SDS011;11385;50.822;4.324;2023-08-21T04:58:07;9.98;;;2.27;;
22435;SDS011;11385;50.822;4.324;2023-08-21T05:00:34;11.03;;;2.70;;
22435;SDS011;11385;50.822;4.324;2023-08-21T05:03:01;10.72;;;2.12;;
22435;SDS011;11385;50.822;4.324;2023-08-21T05:05:28;10.72;;;2.60;;
22435;SDS011;11385;50.822;4.324;2023-08-21T05:07:55;11.95;;;2.22;;
22435;SDS011;11385;50.822;4.324;2023-08-21T05:10:21;8.43;;;2.47;;
22435;SDS011;11385;50.822;4.324;2023-08-21T05:12:48;10.65;;;2.50;;
22435;SDS011;11385;50.822;4.324;2023-08-21T05:15:14;10.58;;;2.87;;
22435;SDS011;11385;50.822;4.324;2023-08-21T05:17:42;10.65;;;2.35;;
22435;SDS011;11385;50.822;4.324;2023-08-21T05:20:09;9.10;;;2.12;;
22435;SDS011;11385;50.822;4.324;2023-08-21T05:22:38;12.60;;;2.42;;
22435;SDS011;11385;50.822;4.324;2023-08-21T05:25:05;8.05;;;2.33;;
22435;SDS011;11385;50.822;4.324;2023-08-21T05:27:33;9.58;;;2.10;;
22435;SDS011;11385;50.822;4.324;2023-08-21T05:29:59;11.43;;;2.35;;
22435;SDS011;11385;50.822;4.324;2023-08-21T05:32:26;11.00;;;2.58;;
22435;SDS011;11385;50.822;4.324;2023-08-21T05:34:52;10.63;;;2.50;;
22435;SDS011;11385;50.822;4.324;2023-08-21T05:37:19;12.40;;;2.70;;
22435;SDS011;11385;50.822;4.324;2023-08-21T05:39:46;9.68;;;2.80;;
22435;SDS011;11385;50.822;4.324;2023-08-21T05:42:14;9.58;;;2.65;;
22435;SDS011;11385;50.822;4.324;2023-08-21T05:44:41;13.98;;;2.87;;
22435;SDS011;11385;50.822;4.324;2023-08-21T05:47:08;16.15;;;2.87;;
22435;SDS011;11385;50.822;4.324;2023-08-21T05:49:34;13.80;;;2.85;;
22435;SDS011;11385;50.822;4.324;2023-08-21T05:52:01;32.80;;;12.23;;
22435;SDS011;11385;50.822;4.324;2023-08-21T05:54:28;10.68;;;4.03;;
22435;SDS011;11385;50.822;4.324;2023-08-21T05:56:56;34.23;;;23.27;;
22435;SDS011;11385;50.822;4.324;2023-08-21T05:59:27;28.62;;;18.85;;
22435;SDS011;11385;50.822;4.324;2023-08-21T06:01:55;10.80;;;3.70;;
22435;SDS011;11385;50.822;4.324;2023-08-21T06:04:22;16.25;;;3.45;;
22435;SDS011;11385;50.822;4.324;2023-08-21T06:06:49;10.72;;;2.52;;
22435;SDS011;11385;50.822;4.324;2023-08-21T06:09:15;11.48;;;2.92;;
22435;SDS011;11385;50.822;4.324;2023-08-21T06:11:43;7.83;;;2.20;;
22435;SDS011;11385;50.822;4.324;2023-08-21T06:14:10;9.25;;;2.70;;
22435;SDS011;11385;50.822;4.324;2023-08-21T06:16:36;22.98;;;12.18;;
22435;SDS011;11385;50.822;4.324;2023-08-21T06:19:03;19.80;;;12.50;;
22435;SDS011;11385;50.822;4.324;2023-08-21T06:21:29;15.10;;;7.22;;
22435;SDS011;11385;50.822;4.324;2023-08-21T06:23:56;16.95;;;3.17;;
22435;SDS011;11385;50.822;4.324;2023-08-21T06:26:23;16.10;;;3.90;;
22435;SDS011;11385;50.822;4.324;2023-08-21T06:28:50;10.58;;;2.70;;
22435;SDS011;11385;50.822;4.324;2023-08-21T06:31:18;12.07;;;3.25;;
22435;SDS011;11385;50.822;4.324;2023-08-21T06:33:44;48.42;;;33.67;;
22435;SDS011;11385;50.822;4.324;2023-08-21T06:36:11;18.35;;;10.05;;
22435;SDS011;11385;50.822;4.324;2023-08-21T06:38:38;14.78;;;3.35;;
22435;SDS011;11385;50.822;4.324;2023-08-21T06:41:04;13.40;;;3.80;;
22435;SDS011;11385;50.822;4.324;2023-08-21T06:43:31;17.65;;;3.90;;
22435;SDS011;11385;50.822;4.324;2023-08-21T06:45:57;12.68;;;3.72;;
22435;SDS011;11385;50.822;4.324;2023-08-21T06:48:24;12.73;;;3.65;;
22435;SDS011;11385;50.822;4.324;2023-08-21T06:50:51;16.40;;;4.40;;
22435;SDS011;11385;50.822;4.324;2023-08-21T06:53:17;10.35;;;3.85;;
22435;SDS011;11385;50.822;4.324;2023-08-21T06:55:45;13.48;;;4.17;;
22435;SDS011;11385;50.822;4.324;2023-08-21T06:58:12;12.78;;;3.92;;
22435;SDS011;11385;50.822;4.324;2023-08-21T07:00:38;14.68;;;4.28;;
22435;SDS011;11385;50.822;4.324;2023-08-21T07:03:05;11.97;;;3.90;;
22435;SDS011;11385;50.822;4.324;2023-08-21T07:05:33;13.72;;;3.98;;
22435;SDS011;11385;50.822;4.324;2023-08-21T07:08:00;14.40;;;3.90;;
22435;SDS011;11385;50.822;4.324;2023-08-21T07:10:27;15.30;;;4.65;;
22435;SDS011;11385;50.822;4.324;2023-08-21T07:12:55;14.07;;;4.28;;
22435;SDS011;11385;50.822;4.324;2023-08-21T07:15:22;14.25;;;4.53;;
22435;SDS011;11385;50.822;4.324;2023-08-21T07:17:48;10.70;;;3.62;;
22435;SDS011;11385;50.822;4.324;2023-08-21T07:20:16;11.45;;;3.85;;
22435;SDS011;11385;50.822;4.324;2023-08-21T07:22:42;12.18;;;3.27;;
22435;SDS011;11385;50.822;4.324;2023-08-21T07:25:09;12.28;;;3.67;;
22435;SDS011;11385;50.822;4.324;2023-08-21T07:27:36;14.30;;;4.00;;
22435;SDS011;11385;50.822;4.324;2023-08-21T07:30:02;10.38;;;3.47;;
22435;SDS011;11385;50.822;4.324;2023-08-21T07:32:29;14.03;;;3.90;;
22435;SDS011;11385;50.822;4.324;2023-08-21T07:34:56;12.58;;;3.47;;
22435;SDS011;11385;50.822;4.324;2023-08-21T07:37:22;13.35;;;4.20;;
22435;SDS011;11385;50.822;4.324;2023-08-21T07:39:49;17.82;;;3.47;;
22435;SDS011;11385;50.822;4.324;2023-08-21T07:42:16;13.05;;;4.00;;
22435;SDS011;11385;50.822;4.324;2023-08-21T07:44:43;13.45;;;4.08;;
22435;SDS011;11385;50.822;4.324;2023-08-21T07:47:11;13.85;;;4.03;;
22435;SDS011;11385;50.822;4.324;2023-08-21T07:49:38;16.12;;;4.00;;
22435;SDS011;11385;50.822;4.324;2023-08-21T07:52:05;15.25;;;4.00;;
22435;SDS011;11385;50.822;4.324;2023-08-21T07:54:31;11.60;;;3.35;;
22435;SDS011;11385;50.822;4.324;2023-08-21T07:56:58;9.78;;;3.85;;
22435;SDS011;11385;50.822;4.324;2023-08-21T07:59:25;11.15;;;3.42;;
22435;SDS011;11385;50.822;4.324;2023-08-21T08:01:51;13.13;;;3.80;;
22435;SDS011;11385;50.822;4.324;2023-08-21T08:04:18;10.58;;;3.70;;
22435;SDS011;11385;50.822;4.324;2023-08-21T08:06:46;12.43;;;4.05;;
22435;SDS011;11385;50.822;4.324;2023-08-21T08:09:12;15.18;;;4.28;;
22435;SDS011;11385;50.822;4.324;2023-08-21T08:11:39;18.73;;;4.28;;
22435;SDS011;11385;50.822;4.324;2023-08-21T08:14:06;12.98;;;4.25;;
22435;SDS011;11385;50.822;4.324;2023-08-21T08:16:32;14.60;;;3.85;;
22435;SDS011;11385;50.822;4.324;2023-08-21T08:18:59;16.62;;;4.50;;
22435;SDS011;11385;50.822;4.324;2023-08-21T08:21:25;11.18;;;4.00;;
22435;SDS011;11385;50.822;4.324;2023-08-21T08:23:52;10.72;;;4.37;;
22435;SDS011;11385;50.822;4.324;2023-08-21T08:26:18;13.30;;;4.37;;
22435;SDS011;11385;50.822;4.324;2023-08-21T08:28:45;9.45;;;4.28;;
22435;SDS011;11385;50.822;4.324;2023-08-21T08:31:15;15.38;;;4.78;;
22435;SDS011;11385;50.822;4.324;2023-08-21T08:33:43;17.20;;;5.17;;
22435;SDS011;11385;50.822;4.324;2023-08-21T08:36:10;15.93;;;4.78;;
22435;SDS011;11385;50.822;4.324;2023-08-21T08:38:36;22.62;;;5.67;;
22435;SDS011;11385;50.822;4.324;2023-08-21T08:41:05;16.85;;;5.42;;
22435;SDS011;11385;50.822;4.324;2023-08-21T08:43:33;20.85;;;4.72;;
22435;SDS011;11385;50.822;4.324;2023-08-21T08:46:04;12.03;;;4.53;;
22435;SDS011;11385;50.822;4.324;2023-08-21T08:48:35;14.07;;;4.83;;
22435;SDS011;11385;50.822;4.324;2023-08-21T08:51:02;14.18;;;4.85;;
22435;SDS011;11385;50.822;4.324;2023-08-21T08:53:30;13.45;;;4.20;;
22435;SDS011;11385;50.822;4.324;2023-08-21T08:55:57;13.62;;;4.20;;
22435;SDS011;11385;50.822;4.324;2023-08-21T08:58:24;15.35;;;5.50;;
22435;SDS011;11385;50.822;4.324;2023-08-21T09:00:51;15.08;;;5.10;;
22435;SDS011;11385;50.822;4.324;2023-08-21T09:03:17;34.03;;;24.57;;
22435;SDS011;11385;50.822;4.324;2023-08-21T09:05:45;14.87;;;5.25;;
22435;SDS011;11385;50.822;4.324;2023-08-21T09:08:13;16.12;;;6.37;;
22435;SDS011;11385;50.822;4.324;2023-08-21T09:10:41;17.23;;;4.58;;
22435;SDS011;11385;50.822;4.324;2023-08-21T09:13:10;16.27;;;5.80;;
22435;SDS011;11385;50.822;4.324;2023-08-21T09:15:40;13.50;;;5.00;;
22435;SDS011;11385;50.822;4.324;2023-08-21T09:18:09;12.03;;;4.35;;
22435;SDS011;11385;50.822;4.324;2023-08-21T09:20:37;22.35;;;9.80;;
22435;SDS011;11385;50.822;4.324;2023-08-21T09:23:04;14.25;;;5.03;;
22435;SDS011;11385;50.822;4.324;2023-08-21T09:25:37;15.05;;;4.08;;
22435;SDS011;11385;50.822;4.324;2023-08-21T09:28:06;9.93;;;3.50;;
22435;SDS011;11385;50.822;4.324;2023-08-21T09:33:11;11.97;;;3.60;;
22435;SDS011;11385;50.822;4.324;2023-08-21T09:35:38;9.70;;;3.52;;
22435;SDS011;11385;50.822;4.324;2023-08-21T09:38:07;9.35;;;2.77;;
22435;SDS011;11385;50.822;4.324;2023-08-21T09:40:36;11.28;;;3.30;;
22435;SDS011;11385;50.822;4.324;2023-08-21T09:43:08;11.10;;;3.00;;
22435;SDS011;11385;50.822;4.324;2023-08-21T09:45:38;9.68;;;3.10;;
22435;SDS011;11385;50.822;4.324;2023-08-21T09:48:06;9.13;;;2.62;;
22435;SDS011;11385;50.822;4.324;2023-08-21T09:50:33;11.27;;;2.70;;
22435;SDS011;11385;50.822;4.324;2023-08-21T09:53:01;10.30;;;2.65;;
22435;SDS011;11385;50.822;4.324;2023-08-21T09:55:30;9.55;;;2.60;;
22435;SDS011;11385;50.822;4.324;2023-08-21T09:57:58;12.45;;;3.77;;
22435;SDS011;11385;50.822;4.324;2023-08-21T10:00:33;7.80;;;2.60;;
22435;SDS011;11385;50.822;4.324;2023-08-21T10:03:02;7.50;;;2.47;;
22435;SDS011;11385;50.822;4.324;2023-08-21T10:05:31;7.78;;;2.90;;
22435;SDS011;11385;50.822;4.324;2023-08-21T10:08:01;6.42;;;1.75;;
22435;SDS011;11385;50.822;4.324;2023-08-21T10:10:32;11.50;;;2.60;;
22435;SDS011;11385;50.822;4.324;2023-08-21T10:13:01;8.30;;;1.52;;
22435;SDS011;11385;50.822;4.324;2023-08-21T10:15:29;5.12;;;1.30;;
22435;SDS011;11385;50.822;4.324;2023-08-21T10:18:33;6.35;;;1.50;;
22435;SDS011;11385;50.822;4.324;2023-08-21T10:20:45;6.90;;;1.57;;
22435;SDS011;11385;50.822;4.324;2023-08-21T10:23:23;5.90;;;1.40;;
22435;SDS011;11385;50.822;4.324;2023-08-21T10:25:47;8.28;;;3.42;;
22435;SDS011;11385;50.822;4.324;2023-08-21T10:28:13;7.92;;;2.55;;
22435;SDS011;11385;50.822;4.324;2023-08-21T10:30:40;5.47;;;1.25;;
22435;SDS011;11385;50.822;4.324;2023-08-21T10:33:06;7.35;;;1.40;;
22435;SDS011;11385;50.822;4.324;2023-08-21T10:35:33;6.12;;;1.37;;
22435;SDS011;11385;50.822;4.324;2023-08-21T10:40:39;2.87;;;0.93;;
22435;SDS011;11385;50.822;4.324;2023-08-21T10:43:40;4.72;;;1.22;;
22435;SDS011;11385;50.822;4.324;2023-08-21T10:45:57;7.85;;;3.02;;
22435;SDS011;11385;50.822;4.324;2023-08-21T10:48:24;4.17;;;1.20;;
22435;SDS011;11385;50.822;4.324;2023-08-21T10:50:50;6.15;;;2.35;;
22435;SDS011;11385;50.822;4.324;2023-08-21T10:53:18;4.47;;;1.27;;
22435;SDS011;11385;50.822;4.324;2023-08-21T10:55:52;6.35;;;1.30;;
22435;SDS011;11385;50.822;4.324;2023-08-21T10:58:20;3.98;;;1.02;;
22435;SDS011;11385;50.822;4.324;2023-08-21T11:00:55;7.83;;;1.32;;
22435;SDS011;11385;50.822;4.324;2023-08-21T11:03:23;3.75;;;1.00;;
22435;SDS011;11385;50.822;4.324;2023-08-21T11:08:28;4.05;;;1.05;;
22435;SDS011;11385;50.822;4.324;2023-08-21T11:10:55;9.93;;;3.72;;
22435;SDS011;11385;50.822;4.324;2023-08-21T11:13:24;6.30;;;2.25;;
22435;SDS011;11385;50.822;4.324;2023-08-21T11:16:00;6.53;;;2.05;;
22435;SDS011;11385;50.822;4.324;2023-08-21T11:18:33;5.30;;;1.72;;
22435;SDS011;11385;50.822;4.324;2023-08-21T11:21:06;5.65;;;1.50;;
22435;SDS011;11385;50.822;4.324;2023-08-21T11:23:35;6.22;;;1.45;;
22435;SDS011;11385;50.822;4.324;2023-08-21T11:26:04;5.70;;;1.55;;
22435;SDS011;11385;50.822;4.324;2023-08-21T11:28:31;6.33;;;1.50;;
22435;SDS011;11385;50.822;4.324;2023-08-21T11:30:58;7.60;;;1.50;;
22435;SDS011;11385;50.822;4.324;2023-08-21T11:33:26;5.33;;;2.00;;
22435;SDS011;11385;50.822;4.324;2023-08-21T11:35:54;5.58;;;2.50;;
22435;SDS011;11385;50.822;4.324;2023-08-21T11:38:24;7.67;;;1.52;;
22435;SDS011;11385;50.822;4.324;2023-08-21T11:40:55;4.55;;;1.35;;
22435;SDS011;11385;50.822;4.324;2023-08-21T11:46:08;9.90;;;2.87;;
22435;SDS011;11385;50.822;4.324;2023-08-21T11:48:37;7.37;;;2.35;;
22435;SDS011;11385;50.822;4.324;2023-08-21T11:51:05;7.58;;;1.40;;
22435;SDS011;11385;50.822;4.324;2023-08-21T11:53:33;5.10;;;1.50;;
22435;SDS011;11385;50.822;4.324;2023-08-21T11:56:08;5.80;;;2.47;;
22435;SDS011;11385;50.822;4.324;2023-08-21T11:58:40;7.08;;;2.00;;
22435;SDS011;11385;50.822;4.324;2023-08-21T12:01:07;7.12;;;2.15;;
22435;SDS011;11385;50.822;4.324;2023-08-21T12:03:36;7.15;;;2.45;;
22435;SDS011;11385;50.822;4.324;2023-08-21T12:06:07;4.55;;;1.80;;
22435;SDS011;11385;50.822;4.324;2023-08-21T12:08:35;7.47;;;2.22;;
22435;SDS011;11385;50.822;4.324;2023-08-21T12:11:02;12.50;;;2.58;;
22435;SDS011;11385;50.822;4.324;2023-08-21T12:13:29;6.37;;;1.82;;
22435;SDS011;11385;50.822;4.324;2023-08-21T12:15:56;6.70;;;1.50;;
22435;SDS011;11385;50.822;4.324;2023-08-21T12:18:23;6.60;;;1.80;;
22435;SDS011;11385;50.822;4.324;2023-08-21T12:20:50;5.80;;;1.47;;
22435;SDS011;11385;50.822;4.324;2023-08-21T12:23:16;9.28;;;2.12;;
22435;SDS011;11385;50.822;4.324;2023-08-21T12:25:43;6.50;;;1.57;;
22435;SDS011;11385;50.822;4.324;2023-08-21T12:28:10;9.38;;;2.08;;
22435;SDS011;11385;50.822;4.324;2023-08-21T12:30:37;5.67;;;1.70;;
22435;SDS011;11385;50.822;4.324;2023-08-21T12:33:04;6.12;;;1.85;;
22435;SDS011;11385;50.822;4.324;2023-08-21T12:35:31;7.10;;;1.52;;
22435;SDS011;11385;50.822;4.324;2023-08-21T12:37:57;5.05;;;1.50;;
22435;SDS011;11385;50.822;4.324;2023-08-21T12:40:26;5.62;;;1.85;;
22435;SDS011;11385;50.822;4.324;2023-08-21T12:42:53;6.03;;;1.60;;
22435;SDS011;11385;50.822;4.324;2023-08-21T12:45:19;5.25;;;1.90;;
22435;SDS011;11385;50.822;4.324;2023-08-21T12:47:46;4.45;;;1.42;;
22435;SDS011;11385;50.822;4.324;2023-08-21T12:50:13;6.10;;;1.90;;
22435;SDS011;11385;50.822;4.324;2023-08-21T12:52:39;9.13;;;2.00;;
22435;SDS011;11385;50.822;4.324;2023-08-21T12:55:07;6.92;;;2.10;;
22435;SDS011;11385;50.822;4.324;2023-08-21T12:57:33;4.22;;;1.75;;
22435;SDS011;11385;50.822;4.324;2023-08-21T13:00:00;5.97;;;1.62;;
22435;SDS011;11385;50.822;4.324;2023-08-21T13:02:27;5.15;;;1.47;;
22435;SDS011;11385;50.822;4.324;2023-08-21T13:04:53;5.35;;;1.60;;
22435;SDS011;11385;50.822;4.324;2023-08-21T13:07:20;4.67;;;1.60;;
22435;SDS011;11385;50.822;4.324;2023-08-21T13:09:47;6.67;;;1.65;;
22435;SDS011;11385;50.822;4.324;2023-08-21T13:12:13;7.97;;;2.20;;
22435;SDS011;11385;50.822;4.324;2023-08-21T13:14:41;7.03;;;1.90;;
22435;SDS011;11385;50.822;4.324;2023-08-21T13:17:08;6.70;;;2.10;;
22435;SDS011;11385;50.822;4.324;2023-08-21T13:19:34;4.87;;;1.65;;
22435;SDS011;11385;50.822;4.324;2023-08-21T13:22:01;5.25;;;1.40;;
22435;SDS011;11385;50.822;4.324;2023-08-21T13:24:28;6.25;;;1.40;;
22435;SDS011;11385;50.822;4.324;2023-08-21T13:26:55;5.92;;;1.52;;
22435;SDS011;11385;50.822;4.324;2023-08-21T13:29:22;8.03;;;1.70;;
22435;SDS011;11385;50.822;4.324;2023-08-21T13:31:49;4.22;;;1.50;;
22435;SDS011;11385;50.822;4.324;2023-08-21T13:34:16;9.98;;;2.17;;
22435;SDS011;11385;50.822;4.324;2023-08-21T13:36:42;6.85;;;3.80;;
22435;SDS011;11385;50.822;4.324;2023-08-21T13:39:09;5.10;;;1.27;;
22435;SDS011;11385;50.822;4.324;2023-08-21T13:41:38;4.78;;;1.10;;
22435;SDS011;11385;50.822;4.324;2023-08-21T13:44:04;2.67;;;1.20;;
22435;SDS011;11385;50.822;4.324;2023-08-21T13:46:32;3.20;;;1.10;;
22435;SDS011;11385;50.822;4.324;2023-08-21T13:49:00;3.98;;;1.05;;
22435;SDS011;11385;50.822;4.324;2023-08-21T13:51:26;5.03;;;1.40;;
22435;SDS011;11385;50.822;4.324;2023-08-21T13:53:53;3.35;;;0.80;;
22435;SDS011;11385;50.822;4.324;2023-08-21T13:56:20;6.25;;;1.27;;
22435;SDS011;11385;50.822;4.324;2023-08-21T13:58:46;3.75;;;0.90;;
22435;SDS011;11385;50.822;4.324;2023-08-21T14:01:13;5.58;;;0.85;;
22435;SDS011;11385;50.822;4.324;2023-08-21T14:03:40;4.33;;;1.20;;
22435;SDS011;11385;50.822;4.324;2023-08-21T14:06:09;4.65;;;1.05;;
22435;SDS011;11385;50.822;4.324;2023-08-21T14:08:37;3.45;;;0.90;;
22435;SDS011;11385;50.822;4.324;2023-08-21T14:11:04;4.12;;;0.88;;
22435;SDS011;11385;50.822;4.324;2023-08-21T14:13:31;3.20;;;0.95;;
22435;SDS011;11385;50.822;4.324;2023-08-21T14:15:59;2.80;;;0.88;;
22435;SDS011;11385;50.822;4.324;2023-08-21T14:18:26;4.65;;;0.70;;
22435;SDS011;11385;50.822;4.324;2023-08-21T14:20:52;4.80;;;1.10;;
22435;SDS011;11385;50.822;4.324;2023-08-21T14:23:19;4.72;;;1.10;;
22435;SDS011;11385;50.822;4.324;2023-08-21T14:25:46;1.65;;;0.60;;
22435;SDS011;11385;50.822;4.324;2023-08-21T14:28:13;2.67;;;0.70;;
22435;SDS011;11385;50.822;4.324;2023-08-21T14:30:39;2.47;;;0.70;;
22435;SDS011;11385;50.822;4.324;2023-08-21T14:33:06;5.37;;;0.70;;
22435;SDS011;11385;50.822;4.324;2023-08-21T14:35:33;3.50;;;0.82;;
22435;SDS011;11385;50.822;4.324;2023-08-21T14:37:59;2.87;;;0.60;;
22435;SDS011;11385;50.822;4.324;2023-08-21T14:40:26;2.25;;;0.80;;
22435;SDS011;11385;50.822;4.324;2023-08-21T14:42:53;4.70;;;0.90;;
22435;SDS011;11385;50.822;4.324;2023-08-21T14:45:19;3.87;;;0.82;;
22435;SDS011;11385;50.822;4.324;2023-08-21T14:47:46;3.80;;;0.93;;
22435;SDS011;11385;50.822;4.324;2023-08-21T14:50:15;1.20;;;0.50;;
22435;SDS011;11385;50.822;4.324;2023-08-21T14:52:42;2.20;;;0.80;;
22435;SDS011;11385;50.822;4.324;2023-08-21T14:55:08;4.17;;;0.98;;
22435;SDS011;11385;50.822;4.324;2023-08-21T14:57:37;2.45;;;0.60;;